sensor_id;sensor_type;location;lat;lon;timestamp;temperature;humidity
33095;DHT22;19459;53.044;8.910;2022-08-03T00:00:38;20.20;99.90
33095;DHT22;19459;53.044;8.910;2022-08-03T00:03:04;20.30;99.90
33095;DHT22;19459;53.044;8.910;2022-08-03T00:05:30;20.20;99.90
33095;DHT22;19459;53.044;8.910;2022-08-03T00:07:58;20.30;99.90
33095;DHT22;19459;53.044;8.910;2022-08-03T00:10:26;20.20;99.90
33095;DHT22;19459;53.044;8.910;2022-08-03T00:12:52;20.20;99.90
33095;DHT22;19459;53.044;8.910;2022-08-03T00:15:18;20.10;99.90
33095;DHT22;19459;53.044;8.910;2022-08-03T00:17:44;20.10;99.90
33095;DHT22;19459;53.044;8.910;2022-08-03T00:20:11;20.10;99.90
33095;DHT22;19459;53.044;8.910;2022-08-03T00:22:37;20.00;99.90
33095;DHT22;19459;53.044;8.910;2022-08-03T00:25:03;20.00;99.90
33095;DHT22;19459;53.044;8.910;2022-08-03T00:27:29;20.00;99.90
33095;DHT22;19459;53.044;8.910;2022-08-03T00:29:55;19.90;99.90
33095;DHT22;19459;53.044;8.910;2022-08-03T00:32:21;19.90;99.90
33095;DHT22;19459;53.044;8.910;2022-08-03T00:34:47;19.80;99.90
33095;DHT22;19459;53.044;8.910;2022-08-03T00:37:12;19.80;99.90
33095;DHT22;19459;53.044;8.910;2022-08-03T00:39:38;19.80;99.90
33095;DHT22;19459;53.044;8.910;2022-08-03T00:42:06;19.80;99.90
33095;DHT22;19459;53.044;8.910;2022-08-03T00:44:39;19.80;99.90
33095;DHT22;19459;53.044;8.910;2022-08-03T00:47:05;19.70;99.90
33095;DHT22;19459;53.044;8.910;2022-08-03T00:49:31;19.70;99.90
33095;DHT22;19459;53.044;8.910;2022-08-03T00:51:59;19.70;99.90
33095;DHT22;19459;53.044;8.910;2022-08-03T00:54:25;19.70;99.90
33095;DHT22;19459;53.044;8.910;2022-08-03T00:56:52;19.60;99.90
33095;DHT22;19459;53.044;8.910;2022-08-03T00:59:18;19.60;99.90
33095;DHT22;19459;53.044;8.910;2022-08-03T01:01:44;19.50;99.90
33095;DHT22;19459;53.044;8.910;2022-08-03T01:04:10;19.50;99.90
33095;DHT22;19459;53.044;8.910;2022-08-03T01:06:52;19.50;99.90
33095;DHT22;19459;53.044;8.910;2022-08-03T01:09:39;19.40;99.90
33095;DHT22;19459;53.044;8.910;2022-08-03T01:12:34;19.40;99.90
33095;DHT22;19459;53.044;8.910;2022-08-03T01:20:50;19.30;99.90
33095;DHT22;19459;53.044;8.910;2022-08-03T01:23:36;19.20;99.90
33095;DHT22;19459;53.044;8.910;2022-08-03T01:35:33;19.10;99.90
33095;DHT22;19459;53.044;8.910;2022-08-03T01:38:03;19.10;99.90
33095;DHT22;19459;53.044;8.910;2022-08-03T01:40:33;19.10;99.90
33095;DHT22;19459;53.044;8.910;2022-08-03T01:43:02;19.00;99.90
33095;DHT22;19459;53.044;8.910;2022-08-03T01:45:29;19.00;99.90
33095;DHT22;19459;53.044;8.910;2022-08-03T01:47:57;19.00;99.90
33095;DHT22;19459;53.044;8.910;2022-08-03T01:50:27;19.00;99.90
33095;DHT22;19459;53.044;8.910;2022-08-03T01:52:56;19.00;99.90
33095;DHT22;19459;53.044;8.910;2022-08-03T01:55:24;18.90;99.90
33095;DHT22;19459;53.044;8.910;2022-08-03T01:57:55;19.00;99.90
33095;DHT22;19459;53.044;8.910;2022-08-03T02:00:22;19.00;99.90
33095;DHT22;19459;53.044;8.910;2022-08-03T02:02:49;19.00;99.90
33095;DHT22;19459;53.044;8.910;2022-08-03T02:05:17;18.90;99.90
33095;DHT22;19459;53.044;8.910;2022-08-03T02:07:45;18.90;99.90
33095;DHT22;19459;53.044;8.910;2022-08-03T02:10:13;18.90;99.90
33095;DHT22;19459;53.044;8.910;2022-08-03T02:12:43;18.90;99.90
33095;DHT22;19459;53.044;8.910;2022-08-03T02:15:11;18.80;99.90
33095;DHT22;19459;53.044;8.910;2022-08-03T02:17:37;18.80;99.90
33095;DHT22;19459;53.044;8.910;2022-08-03T02:20:06;18.80;99.90
33095;DHT22;19459;53.044;8.910;2022-08-03T02:22:34;18.80;99.90
33095;DHT22;19459;53.044;8.910;2022-08-03T02:25:00;18.80;99.90
33095;DHT22;19459;53.044;8.910;2022-08-03T02:27:27;18.80;99.90
33095;DHT22;19459;53.044;8.910;2022-08-03T02:30:20;18.70;99.90
33095;DHT22;19459;53.044;8.910;2022-08-03T02:32:53;18.60;99.90
33095;DHT22;19459;53.044;8.910;2022-08-03T02:35:22;18.60;99.90
33095;DHT22;19459;53.044;8.910;2022-08-03T02:37:58;18.60;99.90
33095;DHT22;19459;53.044;8.910;2022-08-03T02:40:27;18.60;99.90
33095;DHT22;19459;53.044;8.910;2022-08-03T02:42:58;18.50;99.90
33095;DHT22;19459;53.044;8.910;2022-08-03T02:45:26;18.50;99.90
33095;DHT22;19459;53.044;8.910;2022-08-03T02:47:57;18.50;99.90
33095;DHT22;19459;53.044;8.910;2022-08-03T02:50:25;18.50;99.90
33095;DHT22;19459;53.044;8.910;2022-08-03T02:52:53;18.50;99.90
33095;DHT22;19459;53.044;8.910;2022-08-03T02:55:20;18.40;99.90
33095;DHT22;19459;53.044;8.910;2022-08-03T02:57:50;18.40;99.90
33095;DHT22;19459;53.044;8.910;2022-08-03T03:00:17;18.40;99.90
33095;DHT22;19459;53.044;8.910;2022-08-03T03:02:45;18.40;99.90
33095;DHT22;19459;53.044;8.910;2022-08-03T03:05:11;18.40;99.90
33095;DHT22;19459;53.044;8.910;2022-08-03T03:07:38;18.30;99.90
33095;DHT22;19459;53.044;8.910;2022-08-03T03:10:05;18.30;99.90
33095;DHT22;19459;53.044;8.910;2022-08-03T03:12:32;18.30;99.90
33095;DHT22;19459;53.044;8.910;2022-08-03T03:15:00;18.30;99.90
33095;DHT22;19459;53.044;8.910;2022-08-03T03:17:26;18.30;99.90
33095;DHT22;19459;53.044;8.910;2022-08-03T03:19:52;18.20;99.90
33095;DHT22;19459;53.044;8.910;2022-08-03T03:22:19;18.20;99.90
33095;DHT22;19459;53.044;8.910;2022-08-03T03:24:46;18.20;99.90
33095;DHT22;19459;53.044;8.910;2022-08-03T03:27:14;18.20;99.90
33095;DHT22;19459;53.044;8.910;2022-08-03T03:29:44;18.20;99.90
33095;DHT22;19459;53.044;8.910;2022-08-03T03:32:10;18.20;99.90
33095;DHT22;19459;53.044;8.910;2022-08-03T03:34:36;18.10;99.90
33095;DHT22;19459;53.044;8.910;2022-08-03T03:37:02;18.10;99.90
33095;DHT22;19459;53.044;8.910;2022-08-03T03:39:29;18.10;99.90
33095;DHT22;19459;53.044;8.910;2022-08-03T03:41:55;18.00;99.90
33095;DHT22;19459;53.044;8.910;2022-08-03T03:44:26;18.00;99.90
33095;DHT22;19459;53.044;8.910;2022-08-03T03:46:54;18.00;99.90
33095;DHT22;19459;53.044;8.910;2022-08-03T03:49:20;18.00;99.90
33095;DHT22;19459;53.044;8.910;2022-08-03T03:51:46;17.90;99.90
33095;DHT22;19459;53.044;8.910;2022-08-03T03:54:12;17.90;99.90
33095;DHT22;19459;53.044;8.910;2022-08-03T03:56:39;17.90;99.90
33095;DHT22;19459;53.044;8.910;2022-08-03T03:59:05;17.90;99.90
33095;DHT22;19459;53.044;8.910;2022-08-03T04:01:31;17.80;99.90
33095;DHT22;19459;53.044;8.910;2022-08-03T04:03:58;17.80;99.90
33095;DHT22;19459;53.044;8.910;2022-08-03T04:06:44;17.90;99.90
33095;DHT22;19459;53.044;8.910;2022-08-03T04:09:30;17.90;99.90
33095;DHT22;19459;53.044;8.910;2022-08-03T04:12:16;17.80;99.90
33095;DHT22;19459;53.044;8.910;2022-08-03T04:14:43;17.80;99.90
33095;DHT22;19459;53.044;8.910;2022-08-03T04:17:12;17.80;99.90
33095;DHT22;19459;53.044;8.910;2022-08-03T04:19:48;17.90;99.90
33095;DHT22;19459;53.044;8.910;2022-08-03T04:22:23;17.80;99.90
33095;DHT22;19459;53.044;8.910;2022-08-03T04:24:56;17.90;99.90
33095;DHT22;19459;53.044;8.910;2022-08-03T04:27:27;17.90;99.90
33095;DHT22;19459;53.044;8.910;2022-08-03T04:29:59;17.90;99.90
33095;DHT22;19459;53.044;8.910;2022-08-03T04:32:28;18.00;99.90
33095;DHT22;19459;53.044;8.910;2022-08-03T04:34:55;18.00;99.90
33095;DHT22;19459;53.044;8.910;2022-08-03T04:37:37;18.00;99.90
33095;DHT22;19459;53.044;8.910;2022-08-03T04:40:13;18.00;99.90
33095;DHT22;19459;53.044;8.910;2022-08-03T04:42:41;18.10;99.90
33095;DHT22;19459;53.044;8.910;2022-08-03T04:45:11;18.10;99.90
33095;DHT22;19459;53.044;8.910;2022-08-03T04:47:39;18.20;99.90
33095;DHT22;19459;53.044;8.910;2022-08-03T04:50:06;18.20;99.90
33095;DHT22;19459;53.044;8.910;2022-08-03T04:52:33;18.20;99.90
33095;DHT22;19459;53.044;8.910;2022-08-03T04:54:59;18.30;99.90
33095;DHT22;19459;53.044;8.910;2022-08-03T04:57:25;18.30;99.90
33095;DHT22;19459;53.044;8.910;2022-08-03T04:59:52;18.40;99.90
33095;DHT22;19459;53.044;8.910;2022-08-03T05:02:19;18.50;99.90
33095;DHT22;19459;53.044;8.910;2022-08-03T05:04:46;18.50;99.90
33095;DHT22;19459;53.044;8.910;2022-08-03T05:07:12;18.60;99.90
33095;DHT22;19459;53.044;8.910;2022-08-03T05:09:39;18.60;99.90
33095;DHT22;19459;53.044;8.910;2022-08-03T05:12:08;18.70;99.90
33095;DHT22;19459;53.044;8.910;2022-08-03T05:14:35;18.80;99.90
33095;DHT22;19459;53.044;8.910;2022-08-03T05:17:07;18.90;99.90
33095;DHT22;19459;53.044;8.910;2022-08-03T05:19:34;18.90;99.90
33095;DHT22;19459;53.044;8.910;2022-08-03T05:22:00;19.10;99.90
33095;DHT22;19459;53.044;8.910;2022-08-03T05:24:26;19.10;99.90
33095;DHT22;19459;53.044;8.910;2022-08-03T05:26:52;19.10;99.90
33095;DHT22;19459;53.044;8.910;2022-08-03T05:29:18;19.20;99.90
33095;DHT22;19459;53.044;8.910;2022-08-03T05:31:44;19.40;99.90
33095;DHT22;19459;53.044;8.910;2022-08-03T05:34:10;19.50;99.90
33095;DHT22;19459;53.044;8.910;2022-08-03T05:36:37;19.60;99.90
33095;DHT22;19459;53.044;8.910;2022-08-03T05:39:02;19.70;99.90
33095;DHT22;19459;53.044;8.910;2022-08-03T05:41:29;19.80;99.90
33095;DHT22;19459;53.044;8.910;2022-08-03T05:43:55;19.90;99.90
33095;DHT22;19459;53.044;8.910;2022-08-03T05:46:22;19.90;99.90
33095;DHT22;19459;53.044;8.910;2022-08-03T05:48:52;20.10;99.90
33095;DHT22;19459;53.044;8.910;2022-08-03T05:51:17;20.20;99.90
33095;DHT22;19459;53.044;8.910;2022-08-03T05:53:43;20.20;99.90
33095;DHT22;19459;53.044;8.910;2022-08-03T05:56:09;20.40;99.90
33095;DHT22;19459;53.044;8.910;2022-08-03T05:58:36;20.50;99.90
33095;DHT22;19459;53.044;8.910;2022-08-03T06:01:01;20.60;99.90
33095;DHT22;19459;53.044;8.910;2022-08-03T06:03:27;20.70;99.90
33095;DHT22;19459;53.044;8.910;2022-08-03T06:05:53;20.90;99.90
33095;DHT22;19459;53.044;8.910;2022-08-03T06:08:21;21.00;99.90
33095;DHT22;19459;53.044;8.910;2022-08-03T06:10:48;21.10;99.90
33095;DHT22;19459;53.044;8.910;2022-08-03T06:13:14;21.20;99.90
33095;DHT22;19459;53.044;8.910;2022-08-03T06:15:40;21.30;99.90
33095;DHT22;19459;53.044;8.910;2022-08-03T06:18:06;21.50;99.90
33095;DHT22;19459;53.044;8.910;2022-08-03T06:20:32;21.60;99.90
33095;DHT22;19459;53.044;8.910;2022-08-03T06:22:58;21.70;99.90
33095;DHT22;19459;53.044;8.910;2022-08-03T06:25:25;21.80;99.90
33095;DHT22;19459;53.044;8.910;2022-08-03T06:27:52;21.90;99.90
33095;DHT22;19459;53.044;8.910;2022-08-03T06:30:21;22.10;99.90
33095;DHT22;19459;53.044;8.910;2022-08-03T06:32:47;22.30;99.90
33095;DHT22;19459;53.044;8.910;2022-08-03T06:35:13;22.40;99.90
33095;DHT22;19459;53.044;8.910;2022-08-03T06:37:46;22.50;99.90
33095;DHT22;19459;53.044;8.910;2022-08-03T06:40:18;22.60;99.90
33095;DHT22;19459;53.044;8.910;2022-08-03T06:42:45;22.70;99.90
33095;DHT22;19459;53.044;8.910;2022-08-03T06:45:11;22.80;99.90
33095;DHT22;19459;53.044;8.910;2022-08-03T06:47:38;22.90;99.90
33095;DHT22;19459;53.044;8.910;2022-08-03T06:50:05;23.00;99.90
33095;DHT22;19459;53.044;8.910;2022-08-03T06:52:32;23.20;99.90
33095;DHT22;19459;53.044;8.910;2022-08-03T06:54:58;23.30;99.90
33095;DHT22;19459;53.044;8.910;2022-08-03T06:57:24;23.40;99.90
33095;DHT22;19459;53.044;8.910;2022-08-03T06:59:50;23.50;99.90
33095;DHT22;19459;53.044;8.910;2022-08-03T07:02:16;23.60;99.90
33095;DHT22;19459;53.044;8.910;2022-08-03T07:04:47;23.80;99.90
33095;DHT22;19459;53.044;8.910;2022-08-03T07:07:13;23.90;99.90
33095;DHT22;19459;53.044;8.910;2022-08-03T07:09:39;23.90;99.90
33095;DHT22;19459;53.044;8.910;2022-08-03T07:12:04;24.10;99.90
33095;DHT22;19459;53.044;8.910;2022-08-03T07:14:31;24.20;99.90
33095;DHT22;19459;53.044;8.910;2022-08-03T07:16:57;24.40;99.90
33095;DHT22;19459;53.044;8.910;2022-08-03T07:19:22;24.40;99.90
33095;DHT22;19459;53.044;8.910;2022-08-03T07:21:48;24.40;99.90
33095;DHT22;19459;53.044;8.910;2022-08-03T07:24:14;24.60;99.90
33095;DHT22;19459;53.044;8.910;2022-08-03T07:26:39;24.70;99.90
33095;DHT22;19459;53.044;8.910;2022-08-03T07:29:06;24.70;99.90
33095;DHT22;19459;53.044;8.910;2022-08-03T07:31:31;24.80;99.90
33095;DHT22;19459;53.044;8.910;2022-08-03T07:33:57;25.00;99.90
33095;DHT22;19459;53.044;8.910;2022-08-03T07:36:23;25.20;99.90
33095;DHT22;19459;53.044;8.910;2022-08-03T07:38:49;25.40;99.90
33095;DHT22;19459;53.044;8.910;2022-08-03T07:41:15;25.60;99.90
33095;DHT22;19459;53.044;8.910;2022-08-03T07:43:41;25.70;99.90
33095;DHT22;19459;53.044;8.910;2022-08-03T07:46:06;25.80;99.90
33095;DHT22;19459;53.044;8.910;2022-08-03T07:48:32;25.70;99.90
33095;DHT22;19459;53.044;8.910;2022-08-03T07:50:58;25.80;99.90
33095;DHT22;19459;53.044;8.910;2022-08-03T07:53:23;25.60;99.90
33095;DHT22;19459;53.044;8.910;2022-08-03T07:55:49;25.70;99.90
33095;DHT22;19459;53.044;8.910;2022-08-03T07:58:15;25.70;99.90
33095;DHT22;19459;53.044;8.910;2022-08-03T08:00:42;25.90;99.90
33095;DHT22;19459;53.044;8.910;2022-08-03T08:03:09;25.90;99.90
33095;DHT22;19459;53.044;8.910;2022-08-03T08:05:36;25.90;99.90
33095;DHT22;19459;53.044;8.910;2022-08-03T08:08:03;26.00;99.90
33095;DHT22;19459;53.044;8.910;2022-08-03T08:10:29;25.90;99.90
33095;DHT22;19459;53.044;8.910;2022-08-03T08:12:55;26.10;99.90
33095;DHT22;19459;53.044;8.910;2022-08-03T08:15:21;26.40;99.90
33095;DHT22;19459;53.044;8.910;2022-08-03T08:17:49;26.80;99.90
33095;DHT22;19459;53.044;8.910;2022-08-03T08:20:22;26.90;99.60
33095;DHT22;19459;53.044;8.910;2022-08-03T08:22:54;26.80;99.10
33095;DHT22;19459;53.044;8.910;2022-08-03T08:25:24;26.90;98.80
33095;DHT22;19459;53.044;8.910;2022-08-03T08:27:50;27.10;98.50
33095;DHT22;19459;53.044;8.910;2022-08-03T08:30:19;27.20;98.60
33095;DHT22;19459;53.044;8.910;2022-08-03T08:32:46;27.30;98.30
33095;DHT22;19459;53.044;8.910;2022-08-03T08:35:13;27.60;98.70
33095;DHT22;19459;53.044;8.910;2022-08-03T08:37:39;28.00;98.30
33095;DHT22;19459;53.044;8.910;2022-08-03T08:40:06;28.20;97.40
33095;DHT22;19459;53.044;8.910;2022-08-03T08:42:33;27.80;96.60
33095;DHT22;19459;53.044;8.910;2022-08-03T08:44:59;27.90;97.50
33095;DHT22;19459;53.044;8.910;2022-08-03T08:47:29;28.20;97.20
33095;DHT22;19459;53.044;8.910;2022-08-03T08:49:57;28.50;96.90
33095;DHT22;19459;53.044;8.910;2022-08-03T08:52:28;28.60;96.00
33095;DHT22;19459;53.044;8.910;2022-08-03T08:54:59;28.60;95.90
33095;DHT22;19459;53.044;8.910;2022-08-03T08:57:35;28.10;95.60
33095;DHT22;19459;53.044;8.910;2022-08-03T09:00:08;28.00;95.90
33095;DHT22;19459;53.044;8.910;2022-08-03T09:02:36;28.20;96.20
33095;DHT22;19459;53.044;8.910;2022-08-03T09:05:02;28.50;96.10
33095;DHT22;19459;53.044;8.910;2022-08-03T09:07:28;28.80;95.70
33095;DHT22;19459;53.044;8.910;2022-08-03T09:09:54;29.00;95.60
33095;DHT22;19459;53.044;8.910;2022-08-03T09:12:21;29.00;95.20
33095;DHT22;19459;53.044;8.910;2022-08-03T09:14:47;29.10;95.30
33095;DHT22;19459;53.044;8.910;2022-08-03T09:17:13;28.80;94.80
33095;DHT22;19459;53.044;8.910;2022-08-03T09:19:39;29.00;95.40
33095;DHT22;19459;53.044;8.910;2022-08-03T09:22:10;28.90;94.70
33095;DHT22;19459;53.044;8.910;2022-08-03T09:24:54;29.00;94.60
33095;DHT22;19459;53.044;8.910;2022-08-03T09:27:26;29.10;95.00
33095;DHT22;19459;53.044;8.910;2022-08-03T09:29:53;29.30;94.40
33095;DHT22;19459;53.044;8.910;2022-08-03T09:32:23;29.50;94.50
33095;DHT22;19459;53.044;8.910;2022-08-03T09:34:51;29.90;94.60
33095;DHT22;19459;53.044;8.910;2022-08-03T09:37:19;29.90;93.90
33095;DHT22;19459;53.044;8.910;2022-08-03T09:39:47;29.70;93.20
33095;DHT22;19459;53.044;8.910;2022-08-03T09:42:15;29.80;93.80
33095;DHT22;19459;53.044;8.910;2022-08-03T09:44:49;30.10;94.20
33095;DHT22;19459;53.044;8.910;2022-08-03T09:47:34;30.20;93.70
33095;DHT22;19459;53.044;8.910;2022-08-03T09:50:07;30.20;93.20
33095;DHT22;19459;53.044;8.910;2022-08-03T09:52:40;30.30;94.00
33095;DHT22;19459;53.044;8.910;2022-08-03T09:55:13;30.60;93.10
33095;DHT22;19459;53.044;8.910;2022-08-03T09:57:39;30.90;93.10
33095;DHT22;19459;53.044;8.910;2022-08-03T10:00:15;30.30;93.00
33095;DHT22;19459;53.044;8.910;2022-08-03T10:02:43;30.40;92.90
33095;DHT22;19459;53.044;8.910;2022-08-03T10:05:12;30.50;92.80
33095;DHT22;19459;53.044;8.910;2022-08-03T10:07:47;30.30;93.40
33095;DHT22;19459;53.044;8.910;2022-08-03T10:10:15;30.60;92.80
33095;DHT22;19459;53.044;8.910;2022-08-03T10:12:43;30.10;92.70
33095;DHT22;19459;53.044;8.910;2022-08-03T10:15:09;30.20;92.70
33095;DHT22;19459;53.044;8.910;2022-08-03T10:17:36;30.60;93.10
33095;DHT22;19459;53.044;8.910;2022-08-03T10:20:06;30.80;92.20
33095;DHT22;19459;53.044;8.910;2022-08-03T10:22:34;30.90;92.60
33095;DHT22;19459;53.044;8.910;2022-08-03T10:25:08;30.90;91.50
33095;DHT22;19459;53.044;8.910;2022-08-03T10:27:41;31.20;91.50
33095;DHT22;19459;53.044;8.910;2022-08-03T10:30:12;31.70;92.10
33095;DHT22;19459;53.044;8.910;2022-08-03T10:35:19;31.60;90.90
33095;DHT22;19459;53.044;8.910;2022-08-03T10:38:02;31.50;91.50
33095;DHT22;19459;53.044;8.910;2022-08-03T10:40:31;31.80;92.00
33095;DHT22;19459;53.044;8.910;2022-08-03T10:43:08;32.20;90.70
33095;DHT22;19459;53.044;8.910;2022-08-03T10:45:40;32.30;90.60
33095;DHT22;19459;53.044;8.910;2022-08-03T10:48:07;32.00;91.30
33095;DHT22;19459;53.044;8.910;2022-08-03T10:50:33;32.40;90.60
33095;DHT22;19459;53.044;8.910;2022-08-03T10:53:03;32.20;90.10
33095;DHT22;19459;53.044;8.910;2022-08-03T10:55:38;32.40;90.00
33095;DHT22;19459;53.044;8.910;2022-08-03T11:01:02;32.60;90.40
33095;DHT22;19459;53.044;8.910;2022-08-03T11:03:29;32.80;90.50
33095;DHT22;19459;53.044;8.910;2022-08-03T11:06:16;33.00;89.20
33095;DHT22;19459;53.044;8.910;2022-08-03T11:08:45;32.60;88.30
33095;DHT22;19459;53.044;8.910;2022-08-03T11:16:33;32.70;88.80
33095;DHT22;19459;53.044;8.910;2022-08-03T11:19:10;32.90;88.30
33095;DHT22;19459;53.044;8.910;2022-08-03T11:30:10;32.90;86.50
33095;DHT22;19459;53.044;8.910;2022-08-03T11:32:51;33.30;86.40
33095;DHT22;19459;53.044;8.910;2022-08-03T11:35:28;33.30;86.10
33095;DHT22;19459;53.044;8.910;2022-08-03T11:38:05;33.60;86.40
33095;DHT22;19459;53.044;8.910;2022-08-03T11:40:51;33.70;85.40
33095;DHT22;19459;53.044;8.910;2022-08-03T11:48:37;33.00;85.40
33095;DHT22;19459;53.044;8.910;2022-08-03T11:51:05;33.50;85.90
33095;DHT22;19459;53.044;8.910;2022-08-03T11:53:32;34.00;85.50
33095;DHT22;19459;53.044;8.910;2022-08-03T11:56:00;33.70;84.40
33095;DHT22;19459;53.044;8.910;2022-08-03T11:58:27;33.90;85.60
33095;DHT22;19459;53.044;8.910;2022-08-03T12:01:06;34.50;83.90
33095;DHT22;19459;53.044;8.910;2022-08-03T12:03:34;34.60;83.90
33095;DHT22;19459;53.044;8.910;2022-08-03T12:06:00;34.80;83.40
33095;DHT22;19459;53.044;8.910;2022-08-03T12:10:54;34.20;83.00
33095;DHT22;19459;53.044;8.910;2022-08-03T12:13:22;34.60;84.00
33095;DHT22;19459;53.044;8.910;2022-08-03T12:15:54;34.30;82.60
33095;DHT22;19459;53.044;8.910;2022-08-03T12:18:22;34.10;82.30
33095;DHT22;19459;53.044;8.910;2022-08-03T12:20:51;34.40;83.40
33095;DHT22;19459;53.044;8.910;2022-08-03T12:23:19;34.40;81.60
33095;DHT22;19459;53.044;8.910;2022-08-03T12:25:46;34.50;81.60
33095;DHT22;19459;53.044;8.910;2022-08-03T12:28:18;34.80;83.50
33095;DHT22;19459;53.044;8.910;2022-08-03T12:30:50;34.80;81.70
33095;DHT22;19459;53.044;8.910;2022-08-03T12:35:45;34.80;79.80
33095;DHT22;19459;53.044;8.910;2022-08-03T12:38:12;35.00;79.40
33095;DHT22;19459;53.044;8.910;2022-08-03T12:40:38;35.00;80.60
33095;DHT22;19459;53.044;8.910;2022-08-03T12:43:12;35.10;80.50
33095;DHT22;19459;53.044;8.910;2022-08-03T12:45:38;35.10;80.30
33095;DHT22;19459;53.044;8.910;2022-08-03T12:48:08;35.00;80.20
33095;DHT22;19459;53.044;8.910;2022-08-03T12:50:38;34.50;80.00
33095;DHT22;19459;53.044;8.910;2022-08-03T12:53:07;34.30;79.60
33095;DHT22;19459;53.044;8.910;2022-08-03T12:55:38;34.40;79.90
33095;DHT22;19459;53.044;8.910;2022-08-03T12:58:05;34.60;81.20
33095;DHT22;19459;53.044;8.910;2022-08-03T13:00:32;34.50;80.10
33095;DHT22;19459;53.044;8.910;2022-08-03T13:02:59;33.90;80.70
33095;DHT22;19459;53.044;8.910;2022-08-03T13:05:31;34.60;81.60
33095;DHT22;19459;53.044;8.910;2022-08-03T13:07:57;35.00;82.60
33095;DHT22;19459;53.044;8.910;2022-08-03T13:10:28;35.40;80.50
33095;DHT22;19459;53.044;8.910;2022-08-03T13:12:55;35.30;79.50
33095;DHT22;19459;53.044;8.910;2022-08-03T13:15:28;35.60;79.30
33095;DHT22;19459;53.044;8.910;2022-08-03T13:17:57;35.50;79.50
33095;DHT22;19459;53.044;8.910;2022-08-03T13:20:23;35.20;77.70
33095;DHT22;19459;53.044;8.910;2022-08-03T13:22:49;35.20;79.00
33095;DHT22;19459;53.044;8.910;2022-08-03T13:25:16;35.30;79.60
33095;DHT22;19459;53.044;8.910;2022-08-03T13:27:41;34.70;78.40
33095;DHT22;19459;53.044;8.910;2022-08-03T13:30:08;35.00;79.80
33095;DHT22;19459;53.044;8.910;2022-08-03T13:32:35;35.20;81.40
33095;DHT22;19459;53.044;8.910;2022-08-03T13:35:01;35.10;79.00
33095;DHT22;19459;53.044;8.910;2022-08-03T13:37:28;34.70;79.00
33095;DHT22;19459;53.044;8.910;2022-08-03T13:39:56;34.30;80.00
33095;DHT22;19459;53.044;8.910;2022-08-03T13:42:22;34.60;80.20
33095;DHT22;19459;53.044;8.910;2022-08-03T13:44:48;34.70;80.70
33095;DHT22;19459;53.044;8.910;2022-08-03T13:47:14;34.60;80.10
33095;DHT22;19459;53.044;8.910;2022-08-03T13:49:40;34.80;79.80
33095;DHT22;19459;53.044;8.910;2022-08-03T13:52:06;35.00;79.70
33095;DHT22;19459;53.044;8.910;2022-08-03T13:54:32;35.40;81.10
33095;DHT22;19459;53.044;8.910;2022-08-03T13:56:58;35.30;79.00
33095;DHT22;19459;53.044;8.910;2022-08-03T13:59:25;34.70;78.60
33095;DHT22;19459;53.044;8.910;2022-08-03T14:01:52;34.50;78.90
33095;DHT22;19459;53.044;8.910;2022-08-03T14:04:19;34.30;80.50
33095;DHT22;19459;53.044;8.910;2022-08-03T14:06:45;34.50;80.50
33095;DHT22;19459;53.044;8.910;2022-08-03T14:09:14;34.30;78.40
33095;DHT22;19459;53.044;8.910;2022-08-03T14:11:42;34.00;78.80
33095;DHT22;19459;53.044;8.910;2022-08-03T14:14:09;34.30;78.90
33095;DHT22;19459;53.044;8.910;2022-08-03T14:16:35;34.60;78.30
33095;DHT22;19459;53.044;8.910;2022-08-03T14:19:02;34.80;77.90
33095;DHT22;19459;53.044;8.910;2022-08-03T14:21:28;34.80;78.40
33095;DHT22;19459;53.044;8.910;2022-08-03T14:23:55;34.50;78.00
33095;DHT22;19459;53.044;8.910;2022-08-03T14:26:21;34.50;78.80
33095;DHT22;19459;53.044;8.910;2022-08-03T14:28:47;34.90;78.40
33095;DHT22;19459;53.044;8.910;2022-08-03T14:31:12;35.20;78.70
33095;DHT22;19459;53.044;8.910;2022-08-03T14:33:38;35.50;78.40
33095;DHT22;19459;53.044;8.910;2022-08-03T14:36:04;35.80;78.20
33095;DHT22;19459;53.044;8.910;2022-08-03T14:38:30;35.70;77.70
33095;DHT22;19459;53.044;8.910;2022-08-03T14:40:56;35.30;76.80
33095;DHT22;19459;53.044;8.910;2022-08-03T14:43:22;35.10;77.10
33095;DHT22;19459;53.044;8.910;2022-08-03T14:45:52;35.00;75.90
33095;DHT22;19459;53.044;8.910;2022-08-03T14:48:22;35.20;76.60
33095;DHT22;19459;53.044;8.910;2022-08-03T14:50:49;35.00;76.10
33095;DHT22;19459;53.044;8.910;2022-08-03T14:53:16;34.80;76.00
33095;DHT22;19459;53.044;8.910;2022-08-03T14:55:43;35.20;77.60
33095;DHT22;19459;53.044;8.910;2022-08-03T14:58:10;35.00;76.50
33095;DHT22;19459;53.044;8.910;2022-08-03T15:00:36;34.90;78.10
33095;DHT22;19459;53.044;8.910;2022-08-03T15:03:03;34.20;77.20
33095;DHT22;19459;53.044;8.910;2022-08-03T15:05:29;34.20;77.90
33095;DHT22;19459;53.044;8.910;2022-08-03T15:07:55;34.00;78.40
33095;DHT22;19459;53.044;8.910;2022-08-03T15:10:21;33.90;76.90
33095;DHT22;19459;53.044;8.910;2022-08-03T15:12:47;33.70;77.70
33095;DHT22;19459;53.044;8.910;2022-08-03T15:15:12;33.80;78.70
33095;DHT22;19459;53.044;8.910;2022-08-03T15:17:38;34.20;79.40
33095;DHT22;19459;53.044;8.910;2022-08-03T15:20:05;34.70;79.80
33095;DHT22;19459;53.044;8.910;2022-08-03T15:22:33;34.60;78.00
33095;DHT22;19459;53.044;8.910;2022-08-03T15:25:00;34.70;78.30
33095;DHT22;19459;53.044;8.910;2022-08-03T15:27:27;34.20;78.00
33095;DHT22;19459;53.044;8.910;2022-08-03T15:29:53;34.10;78.80
33095;DHT22;19459;53.044;8.910;2022-08-03T15:32:18;34.30;79.20
33095;DHT22;19459;53.044;8.910;2022-08-03T15:34:45;34.20;78.50
33095;DHT22;19459;53.044;8.910;2022-08-03T15:37:11;34.30;79.10
33095;DHT22;19459;53.044;8.910;2022-08-03T15:39:37;34.20;77.60
33095;DHT22;19459;53.044;8.910;2022-08-03T15:42:02;34.30;79.30
33095;DHT22;19459;53.044;8.910;2022-08-03T15:44:28;34.10;78.60
33095;DHT22;19459;53.044;8.910;2022-08-03T15:46:54;34.00;78.50
33095;DHT22;19459;53.044;8.910;2022-08-03T15:49:20;33.90;78.00
33095;DHT22;19459;53.044;8.910;2022-08-03T15:51:46;33.90;79.00
33095;DHT22;19459;53.044;8.910;2022-08-03T15:54:12;34.00;78.80
33095;DHT22;19459;53.044;8.910;2022-08-03T15:56:38;33.70;77.80
33095;DHT22;19459;53.044;8.910;2022-08-03T15:59:06;33.80;77.90
33095;DHT22;19459;53.044;8.910;2022-08-03T16:01:31;33.90;78.30
33095;DHT22;19459;53.044;8.910;2022-08-03T16:03:57;33.70;78.60
33095;DHT22;19459;53.044;8.910;2022-08-03T16:06:23;33.30;77.50
33095;DHT22;19459;53.044;8.910;2022-08-03T16:08:49;33.50;78.50
33095;DHT22;19459;53.044;8.910;2022-08-03T16:11:15;33.60;78.70
33095;DHT22;19459;53.044;8.910;2022-08-03T16:13:40;33.60;78.40
33095;DHT22;19459;53.044;8.910;2022-08-03T16:16:06;33.50;78.20
33095;DHT22;19459;53.044;8.910;2022-08-03T16:18:32;33.30;78.10
33095;DHT22;19459;53.044;8.910;2022-08-03T16:20:58;33.10;78.10